createdAt,value
2019-02-08T00:00:12.366Z,95926.00
2019-02-08T00:02:44.270Z,95924.00
2019-02-08T00:05:16.128Z,95926.00
2019-02-08T00:07:48.259Z,95929.00
2019-02-08T00:10:20.367Z,95927.00
2019-02-08T00:12:52.379Z,95930.00
2019-02-08T00:15:24.504Z,95930.00
2019-02-08T00:17:56.812Z,95930.00
2019-02-08T00:20:28.695Z,95928.00
2019-02-08T00:23:01.663Z,95928.00
2019-02-08T00:25:33.527Z,95935.00
2019-02-08T00:28:06.054Z,95939.00
2019-02-08T00:30:37.932Z,95938.00
2019-02-08T00:33:09.825Z,95937.00
2019-02-08T00:35:41.735Z,95939.00
2019-02-08T00:38:13.620Z,95937.00
2019-02-08T00:40:45.716Z,95936.00
2019-02-08T00:43:17.591Z,95939.00
2019-02-08T00:45:49.491Z,95943.00
2019-02-08T00:48:21.364Z,95940.00
2019-02-08T00:50:53.282Z,95948.00
2019-02-08T00:53:25.338Z,95940.00
2019-02-08T00:55:57.988Z,95928.00
2019-02-08T00:58:29.861Z,95924.00
2019-02-08T01:01:01.853Z,95943.00
2019-02-08T01:03:33.764Z,95938.00
2019-02-08T01:06:06.338Z,95945.00
2019-02-08T01:08:38.208Z,95948.00
2019-02-08T01:11:10.119Z,95952.00
2019-02-08T01:13:41.988Z,95950.00
2019-02-08T01:16:13.890Z,95943.00
2019-02-08T01:18:45.886Z,95943.00
2019-02-08T01:21:17.807Z,95944.00
2019-02-08T01:23:49.753Z,95943.00
2019-02-08T01:26:21.667Z,95954.00
2019-02-08T01:28:53.533Z,95962.00
2019-02-08T01:31:25.609Z,95952.00
2019-02-08T01:33:57.471Z,95960.00
2019-02-08T01:36:29.373Z,95964.00
2019-02-08T01:39:01.616Z,95955.00
2019-02-08T01:41:33.521Z,95965.00
2019-02-08T01:44:05.411Z,95954.00
2019-02-08T01:46:37.317Z,95965.00
2019-02-08T01:49:09.189Z,95966.00
2019-02-08T01:51:44.495Z,95972.00
2019-02-08T01:54:16.254Z,95965.00
2019-02-08T01:56:48.328Z,95964.00
2019-02-08T01:59:20.204Z,95967.00
2019-02-08T02:01:52.114Z,95961.00
2019-02-08T02:04:24.021Z,95966.00
2019-02-08T02:06:55.924Z,95973.00
2019-02-08T02:09:27.801Z,95965.00
2019-02-08T02:12:00.812Z,95963.00
2019-02-08T02:14:33.311Z,95973.00
2019-02-08T02:17:05.220Z,95960.00
2019-02-08T02:19:37.098Z,95963.00
2019-02-08T02:22:08.998Z,95964.00
2019-02-08T02:24:40.883Z,95970.00
2019-02-08T02:27:12.780Z,95972.00
2019-02-08T02:29:44.660Z,95975.00
2019-02-08T02:32:16.563Z,95976.00
2019-02-08T02:34:48.442Z,95974.00
2019-02-08T02:37:20.348Z,95975.00
2019-02-08T02:39:52.222Z,95982.00
2019-02-08T02:42:24.120Z,95965.00
2019-02-08T02:44:55.995Z,95967.00
2019-02-08T02:47:27.894Z,95972.00
2019-02-08T02:49:59.783Z,95979.00
2019-02-08T02:52:31.674Z,95981.00
2019-02-08T02:55:03.560Z,95983.00
2019-02-08T02:57:35.457Z,95991.00
2019-02-08T03:00:22.393Z,95998.00
2019-02-08T03:02:54.721Z,95997.00
2019-02-08T03:05:26.629Z,95988.00
2019-02-08T03:07:58.954Z,95981.00
2019-02-08T03:10:30.928Z,95984.00
2019-02-08T03:13:02.819Z,95980.00
2019-02-08T03:15:34.804Z,95984.00
2019-02-08T03:18:07.340Z,95983.00
2019-02-08T03:20:39.460Z,95985.00
2019-02-08T03:23:11.367Z,95984.00
2019-02-08T03:25:43.344Z,95988.00
2019-02-08T03:28:15.640Z,95984.00
2019-02-08T03:30:58.481Z,95991.00
2019-02-08T03:33:30.371Z,95983.00
2019-02-08T03:36:02.257Z,95983.00
2019-02-08T03:38:34.156Z,95981.00
2019-02-08T03:41:06.148Z,95984.00
2019-02-08T03:43:38.073Z,95979.00
2019-02-08T03:46:09.939Z,95979.00
2019-02-08T03:48:42.344Z,95978.00
2019-02-08T03:51:14.216Z,95978.00
2019-02-08T03:53:46.113Z,95980.00
2019-02-08T03:56:18.140Z,95973.00
2019-02-08T03:58:50.045Z,95974.00
2019-02-08T04:01:21.966Z,95971.00
2019-02-08T04:03:53.867Z,95977.00
2019-02-08T04:06:25.744Z,95974.00
2019-02-08T04:08:57.645Z,95961.00
2019-02-08T04:11:29.506Z,95973.00
2019-02-08T04:14:01.499Z,95973.00
2019-02-08T04:16:33.680Z,95965.00
2019-02-08T04:19:05.683Z,95974.00
2019-02-08T04:21:37.550Z,95975.00
2019-02-08T04:24:09.446Z,95976.00
2019-02-08T04:26:41.335Z,95974.00
2019-02-08T04:29:13.238Z,95991.00
2019-02-08T04:31:45.108Z,95994.00
2019-02-08T04:34:17.009Z,95987.00
2019-02-08T04:36:48.891Z,95988.00
2019-02-08T04:39:20.783Z,95999.00
2019-02-08T04:41:52.654Z,95991.00
2019-02-08T04:44:24.554Z,95986.00
2019-02-08T04:46:56.419Z,95992.00
2019-02-08T04:49:28.328Z,95993.00
2019-02-08T04:52:00.199Z,95990.00
2019-02-08T04:54:38.215Z,95985.00
2019-02-08T04:57:05.712Z,95985.00
2019-02-08T04:59:37.617Z,95981.00
2019-02-08T05:02:09.476Z,95979.00
2019-02-08T05:04:41.369Z,95981.00
2019-02-08T05:07:13.317Z,95981.00
2019-02-08T05:09:45.202Z,95981.00
2019-02-08T05:12:17.076Z,95989.00
2019-02-08T05:14:48.963Z,95976.00
2019-02-08T05:17:20.866Z,95989.00
2019-02-08T05:19:52.748Z,95985.00
2019-02-08T05:22:24.646Z,95982.00
2019-02-08T05:24:56.514Z,95972.00
2019-02-08T05:27:28.409Z,95971.00
2019-02-08T05:30:00.273Z,95977.00
2019-02-08T05:32:32.463Z,95974.00
2019-02-08T05:35:04.510Z,95976.00
2019-02-08T05:37:36.528Z,95981.00
2019-02-08T05:40:10.724Z,95973.00
2019-02-08T05:42:42.619Z,95964.00
2019-02-08T05:45:15.712Z,95967.00
2019-02-08T05:47:47.628Z,95964.00
2019-02-08T05:50:22.608Z,95970.00
2019-02-08T05:52:54.512Z,95973.00
2019-02-08T05:55:28.989Z,95963.00
2019-02-08T05:58:01.066Z,95975.00
2019-02-08T06:01:07.393Z,95970.00
2019-02-08T06:03:39.343Z,95963.00
2019-02-08T06:06:11.198Z,95965.00
2019-02-08T06:08:43.110Z,95975.00
2019-02-08T06:11:15.043Z,95965.00
2019-02-08T06:13:47.140Z,95967.00
2019-02-08T06:16:19.923Z,95965.00
2019-02-08T06:18:51.838Z,95966.00
2019-02-08T06:21:23.703Z,95957.00
2019-02-08T06:23:55.625Z,95970.00
2019-02-08T06:26:27.481Z,95965.00
2019-02-08T06:28:59.392Z,95964.00
2019-02-08T06:31:31.261Z,95971.00
2019-02-08T06:34:03.237Z,95976.00
2019-02-08T06:36:35.176Z,95974.00
2019-02-08T06:39:10.226Z,95966.00
2019-02-08T06:41:42.111Z,95978.00
2019-02-08T06:44:14.018Z,95965.00
2019-02-08T06:46:45.905Z,95963.00
2019-02-08T06:49:17.837Z,95958.00
2019-02-08T06:51:49.817Z,95965.00
2019-02-08T06:54:21.724Z,95975.00
2019-02-08T06:57:10.362Z,95975.00
2019-02-08T06:59:51.536Z,95975.00
2019-02-08T07:02:48.150Z,95983.00
2019-02-08T07:05:45.125Z,95985.00
2019-02-08T07:08:38.941Z,95978.00
2019-02-08T07:11:29.769Z,95977.00
2019-02-08T07:14:25.722Z,95987.00
2019-02-08T07:17:19.278Z,95988.00
2019-02-08T07:20:02.515Z,95990.00
2019-02-08T07:22:56.205Z,95994.00
2019-02-08T07:25:36.254Z,95991.00
2019-02-08T07:28:29.817Z,95990.00
2019-02-08T07:31:29.514Z,95998.00
2019-02-08T07:34:38.773Z,96000.00
2019-02-08T07:37:35.489Z,96007.00
2019-02-08T07:40:44.173Z,96004.00
2019-02-08T07:43:33.164Z,96005.00
2019-02-08T07:46:26.799Z,96000.00
2019-02-08T07:49:14.873Z,95999.00
2019-02-08T07:52:11.647Z,95995.00
2019-02-08T07:55:01.042Z,95997.00
2019-02-08T07:57:52.034Z,95993.00
2019-02-08T08:00:44.577Z,95990.00
2019-02-08T08:03:34.083Z,95990.00
2019-02-08T08:06:37.551Z,95990.00
2019-02-08T08:09:31.045Z,95988.00
2019-02-08T08:12:28.014Z,95990.00
2019-02-08T08:15:29.016Z,95986.00
2019-02-08T08:18:19.947Z,95986.00
2019-02-08T08:21:09.727Z,95988.00
2019-02-08T08:23:53.907Z,95985.00
2019-02-08T08:26:45.859Z,95984.00
2019-02-08T08:29:33.770Z,95978.00
2019-02-08T08:32:13.858Z,95977.00
2019-02-08T08:35:52.874Z,95979.00
2019-02-08T08:39:36.959Z,95986.00
2019-02-08T08:42:58.208Z,95987.00
2019-02-08T08:46:18.937Z,95981.00
2019-02-08T08:50:12.187Z,95983.00
2019-02-08T08:53:49.186Z,95978.00
2019-02-08T08:56:56.562Z,95975.00
2019-02-08T09:00:30.718Z,95959.00
2019-02-08T09:04:11.178Z,95963.00
2019-02-08T09:07:45.673Z,95979.00
2019-02-08T09:11:35.711Z,95965.00
2019-02-08T09:14:54.194Z,95960.00
2019-02-08T09:18:24.135Z,95965.00
2019-02-08T09:21:35.185Z,95967.00
2019-02-08T09:25:22.463Z,95956.00
2019-02-08T09:29:08.640Z,95960.00
2019-02-08T09:32:27.687Z,95958.00
2019-02-08T09:35:54.979Z,95949.00
2019-02-08T09:39:18.124Z,95934.00
2019-02-08T09:42:49.361Z,95922.00
2019-02-08T09:46:12.970Z,95923.00
2019-02-08T09:49:50.210Z,95918.00
2019-02-08T09:53:52.751Z,95911.00
2019-02-08T09:57:31.295Z,95912.00
2019-02-08T10:00:51.000Z,95912.00
2019-02-08T10:03:59.840Z,95910.00
2019-02-08T10:07:32.223Z,95917.00
2019-02-08T10:10:58.198Z,95920.00
2019-02-08T10:14:39.031Z,95916.00
2019-02-08T10:18:26.127Z,95908.00
2019-02-08T10:21:55.045Z,95912.00
2019-02-08T10:25:50.340Z,95905.00
2019-02-08T10:29:20.072Z,95906.00
2019-02-08T10:32:39.893Z,95918.00
2019-02-08T10:36:07.284Z,95902.00
2019-02-08T10:39:35.337Z,95901.00
2019-02-08T10:43:06.436Z,95911.00
2019-02-08T10:46:39.882Z,95901.00
2019-02-08T10:50:05.917Z,95908.00
2019-02-08T10:53:58.414Z,95904.00
2019-02-08T10:57:40.492Z,95909.00
2019-02-08T11:01:09.972Z,95904.00
2019-02-08T11:04:52.249Z,95892.00
2019-02-08T11:08:19.812Z,95892.00
2019-02-08T11:12:01.573Z,95892.00
2019-02-08T11:15:47.870Z,95890.00
2019-02-08T11:19:21.438Z,95893.00
2019-02-08T11:21:54.541Z,95881.00
2019-02-08T11:24:27.624Z,95872.00
2019-02-08T11:27:01.373Z,95863.00
2019-02-08T11:29:33.287Z,95856.00
2019-02-08T11:32:05.155Z,95856.00
2019-02-08T11:34:37.066Z,95847.00
2019-02-08T11:37:09.129Z,95846.00
2019-02-08T11:39:41.033Z,95851.00
2019-02-08T11:42:12.905Z,95849.00
2019-02-08T11:44:44.906Z,95847.00
2019-02-08T11:47:16.812Z,95850.00
2019-02-08T11:49:48.709Z,95843.00
2019-02-08T11:52:20.625Z,95837.00
2019-02-08T11:54:52.539Z,95832.00
2019-02-08T11:57:24.473Z,95834.00
2019-02-08T11:59:56.379Z,95836.00
2019-02-08T12:02:28.326Z,95826.00
2019-02-08T12:05:00.255Z,95824.00
2019-02-08T12:07:32.097Z,95818.00
2019-02-08T12:10:04.816Z,95815.00
2019-02-08T12:12:36.697Z,95810.00
2019-02-08T12:15:10.187Z,95817.00
2019-02-08T12:17:42.909Z,95818.00
2019-02-08T12:20:14.931Z,95810.00
2019-02-08T12:22:46.893Z,95811.00
2019-02-08T12:25:18.822Z,95801.00
2019-02-08T12:27:50.684Z,95794.00
2019-02-08T12:30:27.583Z,95783.00
2019-02-08T12:32:59.524Z,95784.00
2019-02-08T12:35:31.609Z,95791.00
2019-02-08T12:38:03.465Z,95787.00
2019-02-08T12:40:35.358Z,95796.00
2019-02-08T12:43:07.494Z,95782.00
2019-02-08T12:45:39.426Z,95789.00
2019-02-08T12:48:11.566Z,95785.00
2019-02-08T12:50:43.532Z,95779.00
2019-02-08T12:53:15.428Z,95773.00
2019-02-08T12:55:47.359Z,95769.00
2019-02-08T12:58:19.264Z,95771.00
2019-02-08T13:00:51.341Z,95761.00
2019-02-08T13:03:23.243Z,95748.00
2019-02-08T13:05:55.117Z,95757.00
2019-02-08T13:08:27.011Z,95756.00
2019-02-08T13:10:58.898Z,95753.00
2019-02-08T13:13:30.812Z,95744.00
2019-02-08T13:16:02.683Z,95742.00
2019-02-08T13:18:34.592Z,95735.00
2019-02-08T13:21:06.668Z,95731.00
2019-02-08T13:23:38.617Z,95722.00
2019-02-08T13:26:10.584Z,95723.00
2019-02-08T13:28:42.498Z,95708.00
2019-02-08T13:31:14.448Z,95702.00
2019-02-08T13:33:46.348Z,95715.00
2019-02-08T13:36:18.234Z,95704.00
2019-02-08T13:38:50.160Z,95701.00
2019-02-08T13:41:22.179Z,95698.00
2019-02-08T13:43:54.266Z,95700.00
2019-02-08T13:46:26.141Z,95688.00
2019-02-08T13:48:58.100Z,95683.00
2019-02-08T13:51:29.996Z,95690.00
2019-02-08T13:54:01.894Z,95680.00
2019-02-08T13:56:33.761Z,95687.00
2019-02-08T13:59:05.678Z,95682.00
2019-02-08T14:01:37.557Z,95687.00
2019-02-08T14:04:09.461Z,95695.00
2019-02-08T14:06:41.332Z,95684.00
2019-02-08T14:09:13.331Z,95681.00
2019-02-08T14:11:45.276Z,95692.00
2019-02-08T14:14:17.325Z,95691.00
2019-02-08T14:16:49.204Z,95678.00
2019-02-08T14:19:21.104Z,95677.00
2019-02-08T14:21:53.319Z,95684.00
2019-02-08T14:24:25.212Z,95685.00
2019-02-08T14:26:57.194Z,95678.00
2019-02-08T14:29:29.101Z,95679.00
2019-02-08T14:32:00.977Z,95700.00
2019-02-08T14:34:33.243Z,95674.00
2019-02-08T14:37:05.100Z,95677.00
2019-02-08T14:39:37.020Z,95672.00
2019-02-08T14:42:08.898Z,95667.00
2019-02-08T14:44:40.882Z,95661.00
2019-02-08T14:47:12.841Z,95655.00
2019-02-08T14:49:44.763Z,95648.00
2019-02-08T14:52:16.772Z,95635.00
2019-02-08T14:54:48.697Z,95626.00
2019-02-08T14:57:20.584Z,95624.00
2019-02-08T14:59:52.482Z,95627.00
2019-02-08T15:02:24.438Z,95619.00
2019-02-08T15:04:56.443Z,95617.00
2019-02-08T15:07:28.326Z,95616.00
2019-02-08T15:10:00.261Z,95614.00
2019-02-08T15:12:32.119Z,95626.00
2019-02-08T15:15:04.040Z,95628.00
2019-02-08T15:17:35.925Z,95626.00
2019-02-08T15:20:15.948Z,95625.00
2019-02-08T15:22:47.894Z,95618.00
2019-02-08T15:25:19.917Z,95621.00
2019-02-08T15:27:51.799Z,95609.00
2019-02-08T15:30:31.142Z,95613.00
2019-02-08T15:33:04.602Z,95610.00
2019-02-08T15:35:36.823Z,95616.00
2019-02-08T15:38:08.757Z,95614.00
2019-02-08T15:40:53.121Z,95610.00
2019-02-08T15:43:26.387Z,95610.00
2019-02-08T15:46:04.687Z,95602.00
2019-02-08T15:48:36.624Z,95602.00
2019-02-08T15:51:08.662Z,95595.00
2019-02-08T15:53:40.538Z,95591.00
2019-02-08T15:56:15.908Z,95596.00
2019-02-08T15:58:47.818Z,95592.00
2019-02-08T16:01:19.848Z,95583.00
2019-02-08T16:03:52.195Z,95587.00
2019-02-08T16:06:24.185Z,95588.00
2019-02-08T16:08:56.138Z,95574.00
2019-02-08T16:11:28.060Z,95575.00
2019-02-08T16:13:59.935Z,95574.00
2019-02-08T16:16:31.866Z,95574.00
2019-02-08T16:19:03.745Z,95572.00
2019-02-08T16:21:35.661Z,95568.00
2019-02-08T16:24:07.860Z,95571.00
2019-02-08T16:26:39.788Z,95564.00
2019-02-08T16:29:11.675Z,95559.00
2019-02-08T16:31:43.571Z,95554.00
2019-02-08T16:34:15.463Z,95554.00
2019-02-08T16:36:48.071Z,95560.00
2019-02-08T16:39:20.003Z,95557.00
2019-02-08T16:41:52.822Z,95565.00
2019-02-08T16:44:24.775Z,95563.00
2019-02-08T16:46:56.671Z,95556.00
2019-02-08T16:49:29.522Z,95570.00
2019-02-08T16:52:01.456Z,95578.00
2019-02-08T16:54:34.104Z,95564.00
2019-02-08T16:57:06.807Z,95566.00
2019-02-08T16:59:38.792Z,95570.00
2019-02-08T17:02:14.117Z,95566.00
2019-02-08T17:04:46.330Z,95565.00
2019-02-08T17:07:18.307Z,95559.00
2019-02-08T17:09:50.493Z,95562.00
2019-02-08T17:12:22.458Z,95562.00
2019-02-08T17:14:54.341Z,95556.00
2019-02-08T17:17:26.230Z,95554.00
2019-02-08T17:19:58.088Z,95554.00
2019-02-08T17:22:29.988Z,95560.00
2019-02-08T17:25:01.899Z,95559.00
2019-02-08T17:27:33.802Z,95545.00
2019-02-08T17:30:10.227Z,95541.00
2019-02-08T17:32:42.110Z,95541.00
2019-02-08T17:35:15.784Z,95532.00
2019-02-08T17:37:47.664Z,95528.00
2019-02-08T17:40:22.800Z,95528.00
2019-02-08T17:42:54.666Z,95521.00
2019-02-08T17:45:26.874Z,95518.00
2019-02-08T17:48:01.576Z,95513.00
2019-02-08T17:50:33.477Z,95515.00
2019-02-08T17:53:05.375Z,95517.00
2019-02-08T17:55:37.267Z,95510.00
2019-02-08T17:58:09.139Z,95522.00
2019-02-08T18:00:51.219Z,95516.00
2019-02-08T18:03:23.325Z,95516.00
2019-02-08T18:05:55.329Z,95511.00
2019-02-08T18:08:27.194Z,95515.00
2019-02-08T18:10:59.090Z,95510.00
2019-02-08T18:13:31.015Z,95519.00
2019-02-08T18:16:02.897Z,95521.00
2019-02-08T18:18:34.747Z,95520.00
2019-02-08T18:21:10.672Z,95520.00
2019-02-08T18:23:42.532Z,95520.00
2019-02-08T18:26:14.446Z,95524.00
2019-02-08T18:28:47.217Z,95521.00
2019-02-08T18:31:20.395Z,95528.00
2019-02-08T18:33:52.361Z,95521.00
2019-02-08T18:36:24.310Z,95511.00
2019-02-08T18:38:57.322Z,95508.00
2019-02-08T18:41:29.278Z,95501.00
2019-02-08T18:44:01.138Z,95509.00
2019-02-08T18:46:33.096Z,95502.00
2019-02-08T18:49:04.981Z,95498.00
2019-02-08T18:51:36.974Z,95497.00
2019-02-08T18:54:08.978Z,95490.00
2019-02-08T18:56:40.906Z,95492.00
2019-02-08T18:59:12.789Z,95489.00
2019-02-08T19:01:44.883Z,95491.00
2019-02-08T19:04:16.827Z,95490.00
2019-02-08T19:06:48.741Z,95485.00
2019-02-08T19:09:20.603Z,95478.00
2019-02-08T19:11:52.513Z,95486.00
2019-02-08T19:14:24.397Z,95489.00
2019-02-08T19:16:56.298Z,95484.00
2019-02-08T19:19:28.169Z,95489.00
2019-02-08T19:22:00.067Z,95476.00
2019-02-08T19:24:31.951Z,95478.00
2019-02-08T19:27:03.859Z,95480.00
2019-02-08T19:29:35.602Z,95483.00
2019-02-08T19:32:07.513Z,95482.00
2019-02-08T19:34:39.392Z,95472.00
2019-02-08T19:37:11.301Z,95471.00
2019-02-08T19:39:43.176Z,95473.00
2019-02-08T19:42:15.091Z,95475.00
2019-02-08T19:44:46.976Z,95476.00
2019-02-08T19:47:18.877Z,95474.00
2019-02-08T19:49:50.773Z,95473.00
2019-02-08T19:52:23.671Z,95469.00
2019-02-08T19:54:55.560Z,95467.00
2019-02-08T19:57:27.469Z,95463.00
2019-02-08T19:59:59.444Z,95467.00
2019-02-08T20:02:31.353Z,95464.00
2019-02-08T20:05:03.353Z,95470.00
2019-02-08T20:07:35.262Z,95464.00
2019-02-08T20:10:11.352Z,95469.00
2019-02-08T20:12:43.260Z,95467.00
2019-02-08T20:15:17.226Z,95459.00
2019-02-08T20:17:50.571Z,95467.00
2019-02-08T20:20:22.645Z,95459.00
2019-02-08T20:22:54.550Z,95452.00
2019-02-08T20:25:31.944Z,95437.00
2019-02-08T20:28:03.842Z,95432.00
2019-02-08T20:30:35.831Z,95426.00
2019-02-08T20:33:08.272Z,95440.00
2019-02-08T20:35:40.246Z,95446.00
2019-02-08T20:38:12.191Z,95426.00
2019-02-08T20:40:47.766Z,95429.00
2019-02-08T20:43:19.679Z,95418.00
2019-02-08T20:45:51.622Z,95404.00
2019-02-08T20:48:24.647Z,95412.00
2019-02-08T20:50:57.139Z,95419.00
2019-02-08T20:53:29.122Z,95403.00
2019-02-08T20:56:01.256Z,95411.00
2019-02-08T20:58:33.272Z,95408.00
2019-02-08T21:01:05.467Z,95395.00
2019-02-08T21:03:37.379Z,95401.00
2019-02-08T21:06:09.253Z,95395.00
2019-02-08T21:08:41.883Z,95394.00
2019-02-08T21:11:13.828Z,95384.00
2019-02-08T21:13:46.686Z,95391.00
2019-02-08T21:16:18.758Z,95378.00
2019-02-08T21:18:50.945Z,95383.00
2019-02-08T21:21:23.238Z,95382.00
2019-02-08T21:23:55.167Z,95363.00
2019-02-08T21:26:27.041Z,95370.00
2019-02-08T21:28:59.531Z,95367.00
2019-02-08T21:31:31.579Z,95361.00
2019-02-08T21:34:03.492Z,95361.00
2019-02-08T21:36:39.108Z,95347.00
2019-02-08T21:39:09.843Z,95355.00
2019-02-08T21:41:41.717Z,95356.00
2019-02-08T21:44:13.695Z,95342.00
2019-02-08T21:46:45.588Z,95337.00
2019-02-08T21:49:17.490Z,95332.00
2019-02-08T21:51:49.367Z,95320.00
2019-02-08T21:54:21.302Z,95313.00
2019-02-08T21:56:53.174Z,95311.00
2019-02-08T21:59:25.096Z,95309.00
2019-02-08T22:01:56.959Z,95304.00
2019-02-08T22:04:28.855Z,95301.00
2019-02-08T22:07:00.932Z,95300.00
2019-02-08T22:09:32.838Z,95300.00
2019-02-08T22:12:06.264Z,95303.00
2019-02-08T22:14:38.235Z,95300.00
2019-02-08T22:17:10.115Z,95293.00
2019-02-08T22:19:43.650Z,95293.00
2019-02-08T22:22:16.766Z,95274.00
2019-02-08T22:24:48.675Z,95273.00
2019-02-08T22:27:20.572Z,95270.00
2019-02-08T22:29:54.491Z,95271.00
2019-02-08T22:32:26.365Z,95278.00
2019-02-08T22:34:58.273Z,95281.00
2019-02-08T22:37:30.531Z,95278.00
2019-02-08T22:40:04.252Z,95266.00
2019-02-08T22:42:36.202Z,95263.00
2019-02-08T22:45:14.086Z,95257.00
2019-02-08T22:47:45.964Z,95270.00
2019-02-08T22:50:19.254Z,95263.00
2019-02-08T22:52:51.934Z,95252.00
2019-02-08T22:55:26.160Z,95246.00
2019-02-08T22:58:00.242Z,95253.00
2019-02-08T23:01:28.353Z,95254.00
2019-02-08T23:04:05.719Z,95244.00
2019-02-08T23:06:44.566Z,95246.00
2019-02-08T23:09:25.125Z,95232.00
2019-02-08T23:11:57.126Z,95245.00
2019-02-08T23:14:29.029Z,95252.00
2019-02-08T23:17:00.905Z,95242.00
2019-02-08T23:19:32.789Z,95248.00
2019-02-08T23:22:04.758Z,95251.00
2019-02-08T23:24:36.663Z,95245.00
2019-02-08T23:27:08.540Z,95240.00
2019-02-08T23:29:40.436Z,95238.00
2019-02-08T23:32:12.301Z,95242.00
2019-02-08T23:34:44.919Z,95237.00
2019-02-08T23:37:17.001Z,95236.00
2019-02-08T23:39:48.895Z,95252.00
2019-02-08T23:42:20.866Z,95246.00
2019-02-08T23:44:52.827Z,95242.00
2019-02-08T23:47:24.698Z,95242.00
2019-02-08T23:49:56.600Z,95239.00
2019-02-08T23:52:28.479Z,95252.00
2019-02-08T23:55:00.929Z,95242.00
2019-02-08T23:57:32.837Z,95237.00
